sensor_id;sensor_type;location;lat;lon;timestamp;temperature;humidity
45843;DHT22;31563;51.744;8.252;2023-07-22T00:02:13;23.10;52.50
45843;DHT22;31563;51.744;8.252;2023-07-22T00:04:41;23.20;52.60
45843;DHT22;31563;51.744;8.252;2023-07-22T00:07:10;23.10;52.40
45843;DHT22;31563;51.744;8.252;2023-07-22T00:09:38;23.10;52.40
45843;DHT22;31563;51.744;8.252;2023-07-22T00:12:10;23.10;52.40
45843;DHT22;31563;51.744;8.252;2023-07-22T00:17:06;23.10;52.40
45843;DHT22;31563;51.744;8.252;2023-07-22T00:19:35;23.10;52.30
45843;DHT22;31563;51.744;8.252;2023-07-22T00:22:03;23.10;52.40
45843;DHT22;31563;51.744;8.252;2023-07-22T00:24:31;23.10;52.30
45843;DHT22;31563;51.744;8.252;2023-07-22T00:27:00;23.00;52.30
45843;DHT22;31563;51.744;8.252;2023-07-22T00:29:30;23.00;52.30
45843;DHT22;31563;51.744;8.252;2023-07-22T00:31:58;23.00;52.30
45843;DHT22;31563;51.744;8.252;2023-07-22T00:34:26;23.00;52.20
45843;DHT22;31563;51.744;8.252;2023-07-22T00:36:54;23.00;52.20
45843;DHT22;31563;51.744;8.252;2023-07-22T00:39:22;23.00;52.20
45843;DHT22;31563;51.744;8.252;2023-07-22T00:41:50;22.90;52.20
45843;DHT22;31563;51.744;8.252;2023-07-22T00:44:19;22.90;52.20
45843;DHT22;31563;51.744;8.252;2023-07-22T00:46:48;22.90;52.20
45843;DHT22;31563;51.744;8.252;2023-07-22T00:49:18;22.90;52.20
45843;DHT22;31563;51.744;8.252;2023-07-22T00:51:46;22.90;52.20
45843;DHT22;31563;51.744;8.252;2023-07-22T00:54:15;22.90;52.20
45843;DHT22;31563;51.744;8.252;2023-07-22T00:56:44;22.90;52.30
45843;DHT22;31563;51.744;8.252;2023-07-22T00:59:13;22.80;52.20
45843;DHT22;31563;51.744;8.252;2023-07-22T01:01:41;22.80;52.30
45843;DHT22;31563;51.744;8.252;2023-07-22T01:04:14;22.80;52.30
45843;DHT22;31563;51.744;8.252;2023-07-22T01:06:43;22.80;52.30
45843;DHT22;31563;51.744;8.252;2023-07-22T01:09:12;22.70;52.30
45843;DHT22;31563;51.744;8.252;2023-07-22T01:11:40;22.70;52.30
45843;DHT22;31563;51.744;8.252;2023-07-22T01:14:08;22.70;52.30
45843;DHT22;31563;51.744;8.252;2023-07-22T01:16:37;22.70;52.40
45843;DHT22;31563;51.744;8.252;2023-07-22T01:19:06;22.70;52.30
45843;DHT22;31563;51.744;8.252;2023-07-22T01:21:36;22.60;52.30
45843;DHT22;31563;51.744;8.252;2023-07-22T01:24:06;22.60;52.30
45843;DHT22;31563;51.744;8.252;2023-07-22T01:26:35;22.60;52.30
45843;DHT22;31563;51.744;8.252;2023-07-22T01:29:04;22.60;52.40
45843;DHT22;31563;51.744;8.252;2023-07-22T01:31:34;22.60;52.40
45843;DHT22;31563;51.744;8.252;2023-07-22T01:34:03;22.60;52.30
45843;DHT22;31563;51.744;8.252;2023-07-22T01:36:32;22.60;52.30
45843;DHT22;31563;51.744;8.252;2023-07-22T01:39:00;22.60;52.30
45843;DHT22;31563;51.744;8.252;2023-07-22T01:41:30;22.60;52.20
45843;DHT22;31563;51.744;8.252;2023-07-22T01:43:58;22.60;52.10
45843;DHT22;31563;51.744;8.252;2023-07-22T01:46:26;22.50;52.10
45843;DHT22;31563;51.744;8.252;2023-07-22T01:48:55;22.50;52.10
45843;DHT22;31563;51.744;8.252;2023-07-22T01:51:23;22.50;52.10
45843;DHT22;31563;51.744;8.252;2023-07-22T01:53:52;22.50;52.00
45843;DHT22;31563;51.744;8.252;2023-07-22T01:56:20;22.50;52.00
45843;DHT22;31563;51.744;8.252;2023-07-22T01:58:50;22.50;52.00
45843;DHT22;31563;51.744;8.252;2023-07-22T02:01:18;22.50;52.00
45843;DHT22;31563;51.744;8.252;2023-07-22T02:03:46;22.50;52.00
45843;DHT22;31563;51.744;8.252;2023-07-22T02:06:14;22.50;52.00
45843;DHT22;31563;51.744;8.252;2023-07-22T02:08:42;22.40;51.90
45843;DHT22;31563;51.744;8.252;2023-07-22T02:11:11;22.40;51.90
45843;DHT22;31563;51.744;8.252;2023-07-22T02:13:39;22.40;51.90
45843;DHT22;31563;51.744;8.252;2023-07-22T02:16:09;22.40;51.90
45843;DHT22;31563;51.744;8.252;2023-07-22T02:18:38;22.40;51.90
45843;DHT22;31563;51.744;8.252;2023-07-22T02:21:07;22.40;51.90
45843;DHT22;31563;51.744;8.252;2023-07-22T02:23:35;22.40;51.90
45843;DHT22;31563;51.744;8.252;2023-07-22T02:26:03;22.40;51.90
45843;DHT22;31563;51.744;8.252;2023-07-22T02:28:32;22.40;51.90
45843;DHT22;31563;51.744;8.252;2023-07-22T02:31:02;22.40;51.90
45843;DHT22;31563;51.744;8.252;2023-07-22T02:33:35;22.40;51.80
45843;DHT22;31563;51.744;8.252;2023-07-22T02:36:04;22.30;51.80
45843;DHT22;31563;51.744;8.252;2023-07-22T02:38:33;22.30;51.80
45843;DHT22;31563;51.744;8.252;2023-07-22T02:41:02;22.30;51.90
45843;DHT22;31563;51.744;8.252;2023-07-22T02:43:30;22.30;51.80
45843;DHT22;31563;51.744;8.252;2023-07-22T02:46:00;22.30;51.80
45843;DHT22;31563;51.744;8.252;2023-07-22T02:48:29;22.30;51.90
45843;DHT22;31563;51.744;8.252;2023-07-22T02:51:03;22.30;51.90
45843;DHT22;31563;51.744;8.252;2023-07-22T02:53:32;22.30;51.90
45843;DHT22;31563;51.744;8.252;2023-07-22T02:56:01;22.30;51.90
45843;DHT22;31563;51.744;8.252;2023-07-22T02:58:29;22.30;51.90
45843;DHT22;31563;51.744;8.252;2023-07-22T03:00:57;22.20;51.90
45843;DHT22;31563;51.744;8.252;2023-07-22T03:03:27;22.20;51.90
45843;DHT22;31563;51.744;8.252;2023-07-22T03:05:55;22.20;51.90
45843;DHT22;31563;51.744;8.252;2023-07-22T03:08:25;22.20;51.90
45843;DHT22;31563;51.744;8.252;2023-07-22T03:10:53;22.20;51.90
45843;DHT22;31563;51.744;8.252;2023-07-22T03:13:22;22.20;52.00
45843;DHT22;31563;51.744;8.252;2023-07-22T03:15:50;22.10;51.90
45843;DHT22;31563;51.744;8.252;2023-07-22T03:18:18;22.10;52.00
45843;DHT22;31563;51.744;8.252;2023-07-22T03:20:46;22.10;52.00
45843;DHT22;31563;51.744;8.252;2023-07-22T03:23:14;22.10;52.00
45843;DHT22;31563;51.744;8.252;2023-07-22T03:25:44;22.10;52.00
45843;DHT22;31563;51.744;8.252;2023-07-22T03:28:12;22.10;52.00
45843;DHT22;31563;51.744;8.252;2023-07-22T03:30:40;22.10;52.10
45843;DHT22;31563;51.744;8.252;2023-07-22T03:33:09;22.10;52.00
45843;DHT22;31563;51.744;8.252;2023-07-22T03:35:38;22.10;52.00
45843;DHT22;31563;51.744;8.252;2023-07-22T03:38:07;22.10;52.00
45843;DHT22;31563;51.744;8.252;2023-07-22T03:40:36;22.00;51.90
45843;DHT22;31563;51.744;8.252;2023-07-22T03:43:06;22.00;51.90
45843;DHT22;31563;51.744;8.252;2023-07-22T03:45:34;22.10;51.90
45843;DHT22;31563;51.744;8.252;2023-07-22T03:48:02;22.10;51.90
45843;DHT22;31563;51.744;8.252;2023-07-22T03:50:31;22.10;51.90
45843;DHT22;31563;51.744;8.252;2023-07-22T03:52:59;22.10;51.90
45843;DHT22;31563;51.744;8.252;2023-07-22T03:55:27;22.10;51.90
45843;DHT22;31563;51.744;8.252;2023-07-22T03:57:55;22.10;51.90
45843;DHT22;31563;51.744;8.252;2023-07-22T04:00:25;22.10;51.90
45843;DHT22;31563;51.744;8.252;2023-07-22T04:02:53;22.00;51.80
45843;DHT22;31563;51.744;8.252;2023-07-22T04:05:21;22.00;51.80
45843;DHT22;31563;51.744;8.252;2023-07-22T04:07:49;22.00;51.90
45843;DHT22;31563;51.744;8.252;2023-07-22T04:10:17;22.10;54.70
45843;DHT22;31563;51.744;8.252;2023-07-22T04:12:45;22.30;58.70
45843;DHT22;31563;51.744;8.252;2023-07-22T04:15:14;22.40;54.40
45843;DHT22;31563;51.744;8.252;2023-07-22T04:17:45;22.40;57.00
45843;DHT22;31563;51.744;8.252;2023-07-22T04:20:14;22.40;57.00
45843;DHT22;31563;51.744;8.252;2023-07-22T04:22:43;22.30;56.80
45843;DHT22;31563;51.744;8.252;2023-07-22T04:25:11;22.30;56.80
45843;DHT22;31563;51.744;8.252;2023-07-22T04:27:39;22.20;56.80
45843;DHT22;31563;51.744;8.252;2023-07-22T04:30:08;22.20;56.80
45843;DHT22;31563;51.744;8.252;2023-07-22T04:32:37;22.10;56.70
45843;DHT22;31563;51.744;8.252;2023-07-22T04:35:07;22.10;56.60
45843;DHT22;31563;51.744;8.252;2023-07-22T04:37:36;22.10;56.60
45843;DHT22;31563;51.744;8.252;2023-07-22T04:40:06;22.10;56.60
45843;DHT22;31563;51.744;8.252;2023-07-22T04:42:40;22.10;56.60
45843;DHT22;31563;51.744;8.252;2023-07-22T04:45:09;22.10;56.40
45843;DHT22;31563;51.744;8.252;2023-07-22T04:47:38;22.00;56.40
45843;DHT22;31563;51.744;8.252;2023-07-22T04:50:09;22.00;56.30
45843;DHT22;31563;51.744;8.252;2023-07-22T04:52:37;22.00;56.20
45843;DHT22;31563;51.744;8.252;2023-07-22T04:55:06;22.00;56.20
45843;DHT22;31563;51.744;8.252;2023-07-22T04:57:36;22.00;56.20
45843;DHT22;31563;51.744;8.252;2023-07-22T05:00:05;22.00;56.00
45843;DHT22;31563;51.744;8.252;2023-07-22T05:02:36;22.10;55.90
45843;DHT22;31563;51.744;8.252;2023-07-22T05:05:05;22.10;55.60
45843;DHT22;31563;51.744;8.252;2023-07-22T05:07:34;22.20;55.40
45843;DHT22;31563;51.744;8.252;2023-07-22T05:10:03;22.20;55.20
45843;DHT22;31563;51.744;8.252;2023-07-22T05:12:31;22.20;55.10
45843;DHT22;31563;51.744;8.252;2023-07-22T05:14:59;22.20;55.20
45843;DHT22;31563;51.744;8.252;2023-07-22T05:17:27;22.10;55.30
45843;DHT22;31563;51.744;8.252;2023-07-22T05:19:56;22.10;55.30
45843;DHT22;31563;51.744;8.252;2023-07-22T05:22:24;22.10;55.20
45843;DHT22;31563;51.744;8.252;2023-07-22T05:24:54;22.20;55.10
45843;DHT22;31563;51.744;8.252;2023-07-22T05:27:22;22.20;54.90
45843;DHT22;31563;51.744;8.252;2023-07-22T05:29:51;22.30;54.60
45843;DHT22;31563;51.744;8.252;2023-07-22T05:32:19;22.50;54.30
45843;DHT22;31563;51.744;8.252;2023-07-22T05:34:59;22.60;53.90
45843;DHT22;31563;51.744;8.252;2023-07-22T05:37:28;22.60;53.60
45843;DHT22;31563;51.744;8.252;2023-07-22T05:39:58;22.60;53.60
45843;DHT22;31563;51.744;8.252;2023-07-22T05:42:26;22.50;53.70
45843;DHT22;31563;51.744;8.252;2023-07-22T05:44:55;22.50;53.90
45843;DHT22;31563;51.744;8.252;2023-07-22T05:47:23;22.40;54.00
45843;DHT22;31563;51.744;8.252;2023-07-22T05:49:52;22.40;53.90
45843;DHT22;31563;51.744;8.252;2023-07-22T05:52:20;22.40;54.00
45843;DHT22;31563;51.744;8.252;2023-07-22T05:54:48;22.40;54.00
45843;DHT22;31563;51.744;8.252;2023-07-22T05:57:18;22.50;54.00
45843;DHT22;31563;51.744;8.252;2023-07-22T05:59:46;22.40;53.90
45843;DHT22;31563;51.744;8.252;2023-07-22T06:02:32;22.40;53.90
45843;DHT22;31563;51.744;8.252;2023-07-22T06:05:00;22.40;54.00
45843;DHT22;31563;51.744;8.252;2023-07-22T06:07:29;22.30;54.00
45843;DHT22;31563;51.744;8.252;2023-07-22T06:09:57;22.40;54.00
45843;DHT22;31563;51.744;8.252;2023-07-22T06:12:27;22.40;54.00
45843;DHT22;31563;51.744;8.252;2023-07-22T06:14:56;22.40;53.80
45843;DHT22;31563;51.744;8.252;2023-07-22T06:17:24;22.50;53.70
45843;DHT22;31563;51.744;8.252;2023-07-22T06:19:53;22.60;53.50
45843;DHT22;31563;51.744;8.252;2023-07-22T06:22:21;22.70;53.20
45843;DHT22;31563;51.744;8.252;2023-07-22T06:24:49;22.80;52.70
45843;DHT22;31563;51.744;8.252;2023-07-22T06:27:17;22.80;52.50
45843;DHT22;31563;51.744;8.252;2023-07-22T06:29:47;22.90;52.50
45843;DHT22;31563;51.744;8.252;2023-07-22T06:32:15;22.80;52.60
45843;DHT22;31563;51.744;8.252;2023-07-22T06:34:43;22.80;52.70
45843;DHT22;31563;51.744;8.252;2023-07-22T06:37:11;22.80;52.60
45843;DHT22;31563;51.744;8.252;2023-07-22T06:39:39;22.90;52.50
45843;DHT22;31563;51.744;8.252;2023-07-22T06:42:07;23.00;52.30
45843;DHT22;31563;51.744;8.252;2023-07-22T06:44:36;23.00;52.10
45843;DHT22;31563;51.744;8.252;2023-07-22T06:47:06;23.10;51.90
45843;DHT22;31563;51.744;8.252;2023-07-22T06:49:34;23.10;51.80
45843;DHT22;31563;51.744;8.252;2023-07-22T06:52:02;23.20;51.70
45843;DHT22;31563;51.744;8.252;2023-07-22T06:54:31;23.30;51.60
45843;DHT22;31563;51.744;8.252;2023-07-22T06:56:59;23.40;51.20
45843;DHT22;31563;51.744;8.252;2023-07-22T06:59:27;23.40;50.90
45843;DHT22;31563;51.744;8.252;2023-07-22T07:01:55;23.40;51.00
45843;DHT22;31563;51.744;8.252;2023-07-22T07:04:25;23.40;51.00
45843;DHT22;31563;51.744;8.252;2023-07-22T07:06:54;23.50;52.40
45843;DHT22;31563;51.744;8.252;2023-07-22T07:09:22;23.80;52.40
45843;DHT22;31563;51.744;8.252;2023-07-22T07:11:50;24.00;52.20
45843;DHT22;31563;51.744;8.252;2023-07-22T07:14:19;24.40;52.60
45843;DHT22;31563;51.744;8.252;2023-07-22T07:16:47;24.60;51.40
45843;DHT22;31563;51.744;8.252;2023-07-22T07:19:15;24.80;50.90
45843;DHT22;31563;51.744;8.252;2023-07-22T07:21:44;24.70;50.50
45843;DHT22;31563;51.744;8.252;2023-07-22T07:24:13;24.90;50.40
45843;DHT22;31563;51.744;8.252;2023-07-22T07:26:41;25.10;50.00
45843;DHT22;31563;51.744;8.252;2023-07-22T07:29:09;25.20;50.50
45843;DHT22;31563;51.744;8.252;2023-07-22T07:31:38;25.30;50.40
45843;DHT22;31563;51.744;8.252;2023-07-22T07:34:07;25.40;50.30
45843;DHT22;31563;51.744;8.252;2023-07-22T07:36:35;25.30;50.50
45843;DHT22;31563;51.744;8.252;2023-07-22T07:39:04;25.30;50.50
45843;DHT22;31563;51.744;8.252;2023-07-22T07:41:33;25.30;50.60
45843;DHT22;31563;51.744;8.252;2023-07-22T07:44:01;25.30;50.70
45843;DHT22;31563;51.744;8.252;2023-07-22T07:46:29;25.20;50.70
45843;DHT22;31563;51.744;8.252;2023-07-22T07:49:00;25.10;50.90
45843;DHT22;31563;51.744;8.252;2023-07-22T07:51:30;25.10;51.10
45843;DHT22;31563;51.744;8.252;2023-07-22T07:53:59;25.10;50.90
45843;DHT22;31563;51.744;8.252;2023-07-22T07:56:28;25.50;50.50
45843;DHT22;31563;51.744;8.252;2023-07-22T07:58:56;26.00;49.50
45843;DHT22;31563;51.744;8.252;2023-07-22T08:01:24;26.40;48.60
45843;DHT22;31563;51.744;8.252;2023-07-22T08:03:53;26.80;47.70
45843;DHT22;31563;51.744;8.252;2023-07-22T08:06:21;26.90;47.30
45843;DHT22;31563;51.744;8.252;2023-07-22T08:08:49;26.90;47.40
45843;DHT22;31563;51.744;8.252;2023-07-22T08:11:17;26.90;47.50
45843;DHT22;31563;51.744;8.252;2023-07-22T08:13:47;27.10;47.40
45843;DHT22;31563;51.744;8.252;2023-07-22T08:16:16;27.70;46.40
45843;DHT22;31563;51.744;8.252;2023-07-22T08:18:45;28.40;45.20
45843;DHT22;31563;51.744;8.252;2023-07-22T08:21:14;29.10;44.20
45843;DHT22;31563;51.744;8.252;2023-07-22T08:23:42;29.60;43.20
45843;DHT22;31563;51.744;8.252;2023-07-22T08:26:13;30.00;42.40
45843;DHT22;31563;51.744;8.252;2023-07-22T08:28:44;30.20;42.10
45843;DHT22;31563;51.744;8.252;2023-07-22T08:31:14;30.40;41.80
45843;DHT22;31563;51.744;8.252;2023-07-22T08:33:43;30.40;41.00
45843;DHT22;31563;51.744;8.252;2023-07-22T08:36:11;30.20;40.80
45843;DHT22;31563;51.744;8.252;2023-07-22T08:38:39;30.50;40.90
45843;DHT22;31563;51.744;8.252;2023-07-22T08:41:07;30.20;40.70
45843;DHT22;31563;51.744;8.252;2023-07-22T08:43:39;30.40;40.50
45843;DHT22;31563;51.744;8.252;2023-07-22T08:46:09;30.60;40.40
45843;DHT22;31563;51.744;8.252;2023-07-22T08:48:42;30.80;40.20
45843;DHT22;31563;51.744;8.252;2023-07-22T08:51:12;31.00;39.60
45843;DHT22;31563;51.744;8.252;2023-07-22T08:53:43;30.80;39.80
45843;DHT22;31563;51.744;8.252;2023-07-22T08:56:26;31.10;39.60
45843;DHT22;31563;51.744;8.252;2023-07-22T08:58:55;31.60;38.40
45843;DHT22;31563;51.744;8.252;2023-07-22T09:01:24;31.90;37.80
45843;DHT22;31563;51.744;8.252;2023-07-22T09:03:54;31.80;37.60
45843;DHT22;31563;51.744;8.252;2023-07-22T09:06:25;31.50;38.40
45843;DHT22;31563;51.744;8.252;2023-07-22T09:08:54;30.70;37.70
45843;DHT22;31563;51.744;8.252;2023-07-22T09:11:23;30.30;37.90
45843;DHT22;31563;51.744;8.252;2023-07-22T09:13:52;30.70;37.10
45843;DHT22;31563;51.744;8.252;2023-07-22T09:16:21;31.30;37.10
45843;DHT22;31563;51.744;8.252;2023-07-22T09:18:49;31.70;36.80
45843;DHT22;31563;51.744;8.252;2023-07-22T09:21:19;30.70;36.50
45843;DHT22;31563;51.744;8.252;2023-07-22T09:23:47;30.10;38.30
45843;DHT22;31563;51.744;8.252;2023-07-22T09:26:16;29.50;38.90
45843;DHT22;31563;51.744;8.252;2023-07-22T09:28:51;29.20;40.00
45843;DHT22;31563;51.744;8.252;2023-07-22T09:31:21;28.90;39.60
45843;DHT22;31563;51.744;8.252;2023-07-22T09:33:50;28.80;39.50
45843;DHT22;31563;51.744;8.252;2023-07-22T09:36:19;28.90;39.40
45843;DHT22;31563;51.744;8.252;2023-07-22T09:38:59;28.50;39.30
45843;DHT22;31563;51.744;8.252;2023-07-22T09:41:30;28.40;39.30
45843;DHT22;31563;51.744;8.252;2023-07-22T09:44:02;28.40;39.60
45843;DHT22;31563;51.744;8.252;2023-07-22T09:46:32;28.30;40.00
45843;DHT22;31563;51.744;8.252;2023-07-22T09:49:03;28.30;39.90
45843;DHT22;31563;51.744;8.252;2023-07-22T09:51:35;27.90;39.60
45843;DHT22;31563;51.744;8.252;2023-07-22T09:54:22;27.50;39.60
45843;DHT22;31563;51.744;8.252;2023-07-22T09:56:52;27.60;40.80
45843;DHT22;31563;51.744;8.252;2023-07-22T09:59:21;27.70;40.10
45843;DHT22;31563;51.744;8.252;2023-07-22T10:01:50;28.00;39.70
45843;DHT22;31563;51.744;8.252;2023-07-22T10:04:21;28.20;39.30
45843;DHT22;31563;51.744;8.252;2023-07-22T10:06:53;28.20;39.10
45843;DHT22;31563;51.744;8.252;2023-07-22T10:09:23;28.10;39.40
45843;DHT22;31563;51.744;8.252;2023-07-22T10:11:55;28.40;39.00
45843;DHT22;31563;51.744;8.252;2023-07-22T10:14:23;28.20;38.30
45843;DHT22;31563;51.744;8.252;2023-07-22T10:16:52;27.90;39.40
45843;DHT22;31563;51.744;8.252;2023-07-22T10:19:21;27.80;39.30
45843;DHT22;31563;51.744;8.252;2023-07-22T10:21:50;27.80;39.90
45843;DHT22;31563;51.744;8.252;2023-07-22T10:24:21;27.80;40.00
45843;DHT22;31563;51.744;8.252;2023-07-22T10:26:50;27.70;38.90
45843;DHT22;31563;51.744;8.252;2023-07-22T10:29:20;27.70;38.90
45843;DHT22;31563;51.744;8.252;2023-07-22T10:31:48;27.40;38.70
45843;DHT22;31563;51.744;8.252;2023-07-22T10:34:21;27.50;38.80
45843;DHT22;31563;51.744;8.252;2023-07-22T10:36:49;27.50;38.80
45843;DHT22;31563;51.744;8.252;2023-07-22T10:39:26;27.40;38.40
45843;DHT22;31563;51.744;8.252;2023-07-22T10:42:01;27.50;38.40
45843;DHT22;31563;51.744;8.252;2023-07-22T10:44:32;27.70;38.50
45843;DHT22;31563;51.744;8.252;2023-07-22T10:47:00;27.70;38.30
45843;DHT22;31563;51.744;8.252;2023-07-22T10:49:43;27.60;38.20
45843;DHT22;31563;51.744;8.252;2023-07-22T10:52:12;27.50;38.50
45843;DHT22;31563;51.744;8.252;2023-07-22T10:54:42;27.60;38.20
45843;DHT22;31563;51.744;8.252;2023-07-22T10:57:23;27.70;38.00
45843;DHT22;31563;51.744;8.252;2023-07-22T10:59:52;27.80;38.10
45843;DHT22;31563;51.744;8.252;2023-07-22T11:02:26;27.80;38.00
45843;DHT22;31563;51.744;8.252;2023-07-22T11:04:56;29.10;37.10
45843;DHT22;31563;51.744;8.252;2023-07-22T11:07:33;29.70;34.70
45843;DHT22;31563;51.744;8.252;2023-07-22T11:10:14;29.40;35.00
45843;DHT22;31563;51.744;8.252;2023-07-22T11:12:44;28.90;35.80
45843;DHT22;31563;51.744;8.252;2023-07-22T11:15:15;28.70;36.70
45843;DHT22;31563;51.744;8.252;2023-07-22T11:17:44;28.60;36.90
45843;DHT22;31563;51.744;8.252;2023-07-22T11:20:12;28.50;36.70
45843;DHT22;31563;51.744;8.252;2023-07-22T11:22:41;28.50;36.70
45843;DHT22;31563;51.744;8.252;2023-07-22T11:25:17;28.30;36.30
45843;DHT22;31563;51.744;8.252;2023-07-22T11:27:45;30.40;34.40
45843;DHT22;31563;51.744;8.252;2023-07-22T11:30:14;31.70;32.40
45843;DHT22;31563;51.744;8.252;2023-07-22T11:32:43;32.30;31.70
45843;DHT22;31563;51.744;8.252;2023-07-22T11:35:15;32.40;31.60
45843;DHT22;31563;51.744;8.252;2023-07-22T11:37:44;32.00;31.70
45843;DHT22;31563;51.744;8.252;2023-07-22T11:40:12;31.70;32.10
45843;DHT22;31563;51.744;8.252;2023-07-22T11:42:43;31.10;32.20
45843;DHT22;31563;51.744;8.252;2023-07-22T11:45:14;30.50;33.40
45843;DHT22;31563;51.744;8.252;2023-07-22T11:47:42;30.30;33.50
45843;DHT22;31563;51.744;8.252;2023-07-22T11:50:11;30.20;33.60
45843;DHT22;31563;51.744;8.252;2023-07-22T11:52:39;30.50;33.50
45843;DHT22;31563;51.744;8.252;2023-07-22T11:55:08;31.20;32.60
45843;DHT22;31563;51.744;8.252;2023-07-22T11:57:53;32.00;32.00
45843;DHT22;31563;51.744;8.252;2023-07-22T12:00:22;33.30;30.70
45843;DHT22;31563;51.744;8.252;2023-07-22T12:02:50;33.90;30.00
45843;DHT22;31563;51.744;8.252;2023-07-22T12:05:23;33.70;29.90
45843;DHT22;31563;51.744;8.252;2023-07-22T12:07:51;33.60;30.00
45843;DHT22;31563;51.744;8.252;2023-07-22T12:10:20;33.20;30.00
45843;DHT22;31563;51.744;8.252;2023-07-22T12:12:53;33.00;30.20
45843;DHT22;31563;51.744;8.252;2023-07-22T12:15:22;33.10;30.00
45843;DHT22;31563;51.744;8.252;2023-07-22T12:17:53;33.80;30.00
45843;DHT22;31563;51.744;8.252;2023-07-22T12:20:24;34.60;29.80
45843;DHT22;31563;51.744;8.252;2023-07-22T12:22:52;36.60;28.70
45843;DHT22;31563;51.744;8.252;2023-07-22T12:25:20;37.90;27.30
45843;DHT22;31563;51.744;8.252;2023-07-22T12:27:49;39.20;27.00
45843;DHT22;31563;51.744;8.252;2023-07-22T12:30:19;40.10;26.00
45843;DHT22;31563;51.744;8.252;2023-07-22T12:32:48;40.20;26.00
45843;DHT22;31563;51.744;8.252;2023-07-22T12:35:16;39.90;25.60
45843;DHT22;31563;51.744;8.252;2023-07-22T12:37:45;38.10;26.40
45843;DHT22;31563;51.744;8.252;2023-07-22T12:40:13;36.70;27.20
45843;DHT22;31563;51.744;8.252;2023-07-22T12:42:41;37.10;27.40
45843;DHT22;31563;51.744;8.252;2023-07-22T12:45:10;35.90;27.70
45843;DHT22;31563;51.744;8.252;2023-07-22T12:47:39;36.90;27.70
45843;DHT22;31563;51.744;8.252;2023-07-22T12:50:08;37.40;27.20
45843;DHT22;31563;51.744;8.252;2023-07-22T12:52:38;36.10;28.00
45843;DHT22;31563;51.744;8.252;2023-07-22T12:55:07;35.20;28.60
45843;DHT22;31563;51.744;8.252;2023-07-22T12:57:35;34.20;29.30
45843;DHT22;31563;51.744;8.252;2023-07-22T13:00:04;33.80;29.50
45843;DHT22;31563;51.744;8.252;2023-07-22T13:02:36;36.00;28.90
45843;DHT22;31563;51.744;8.252;2023-07-22T13:05:07;35.40;28.20
45843;DHT22;31563;51.744;8.252;2023-07-22T13:07:35;34.50;28.90
45843;DHT22;31563;51.744;8.252;2023-07-22T13:10:04;35.70;28.90
45843;DHT22;31563;51.744;8.252;2023-07-22T13:12:36;37.20;27.90
45843;DHT22;31563;51.744;8.252;2023-07-22T13:15:05;36.40;27.70
45843;DHT22;31563;51.744;8.252;2023-07-22T13:17:33;36.50;28.10
45843;DHT22;31563;51.744;8.252;2023-07-22T13:20:01;37.50;27.60
45843;DHT22;31563;51.744;8.252;2023-07-22T13:22:31;37.00;27.60
45843;DHT22;31563;51.744;8.252;2023-07-22T13:24:59;37.10;27.20
45843;DHT22;31563;51.744;8.252;2023-07-22T13:27:27;35.90;27.70
45843;DHT22;31563;51.744;8.252;2023-07-22T13:29:56;36.30;27.80
45843;DHT22;31563;51.744;8.252;2023-07-22T13:32:24;35.70;27.70
45843;DHT22;31563;51.744;8.252;2023-07-22T13:34:52;36.70;27.60
45843;DHT22;31563;51.744;8.252;2023-07-22T13:37:20;36.80;27.00
45843;DHT22;31563;51.744;8.252;2023-07-22T13:39:50;37.30;26.90
45843;DHT22;31563;51.744;8.252;2023-07-22T13:42:18;37.80;26.90
45843;DHT22;31563;51.744;8.252;2023-07-22T13:44:46;38.40;26.70
45843;DHT22;31563;51.744;8.252;2023-07-22T13:47:14;38.20;26.50
45843;DHT22;31563;51.744;8.252;2023-07-22T13:49:42;37.30;26.90
45843;DHT22;31563;51.744;8.252;2023-07-22T13:52:10;37.30;26.80
45843;DHT22;31563;51.744;8.252;2023-07-22T13:54:39;36.80;27.00
45843;DHT22;31563;51.744;8.252;2023-07-22T13:57:08;36.50;27.20
45843;DHT22;31563;51.744;8.252;2023-07-22T13:59:36;37.40;27.10
45843;DHT22;31563;51.744;8.252;2023-07-22T14:02:05;37.50;27.00
45843;DHT22;31563;51.744;8.252;2023-07-22T14:04:33;38.10;26.60
45843;DHT22;31563;51.744;8.252;2023-07-22T14:07:02;38.30;26.60
45843;DHT22;31563;51.744;8.252;2023-07-22T14:09:30;38.10;26.40
45843;DHT22;31563;51.744;8.252;2023-07-22T14:11:58;37.90;26.60
45843;DHT22;31563;51.744;8.252;2023-07-22T14:14:27;37.30;26.50
45843;DHT22;31563;51.744;8.252;2023-07-22T14:16:56;37.00;26.60
45843;DHT22;31563;51.744;8.252;2023-07-22T14:19:24;36.70;26.70
45843;DHT22;31563;51.744;8.252;2023-07-22T14:21:52;36.70;27.20
45843;DHT22;31563;51.744;8.252;2023-07-22T14:24:22;36.50;26.50
45843;DHT22;31563;51.744;8.252;2023-07-22T14:26:50;36.10;26.60
45843;DHT22;31563;51.744;8.252;2023-07-22T14:29:18;36.50;26.90
45843;DHT22;31563;51.744;8.252;2023-07-22T14:31:49;37.10;26.80
45843;DHT22;31563;51.744;8.252;2023-07-22T14:34:17;37.60;26.30
45843;DHT22;31563;51.744;8.252;2023-07-22T14:36:45;37.40;26.10
45843;DHT22;31563;51.744;8.252;2023-07-22T14:39:13;37.30;26.20
45843;DHT22;31563;51.744;8.252;2023-07-22T14:41:42;37.10;26.50
45843;DHT22;31563;51.744;8.252;2023-07-22T14:44:11;36.90;26.40
45843;DHT22;31563;51.744;8.252;2023-07-22T14:46:39;36.40;26.40
45843;DHT22;31563;51.744;8.252;2023-07-22T14:49:08;35.90;26.60
45843;DHT22;31563;51.744;8.252;2023-07-22T14:51:37;36.00;27.00
45843;DHT22;31563;51.744;8.252;2023-07-22T14:54:05;36.40;26.80
45843;DHT22;31563;51.744;8.252;2023-07-22T14:56:34;36.90;26.50
45843;DHT22;31563;51.744;8.252;2023-07-22T14:59:02;37.20;26.50
45843;DHT22;31563;51.744;8.252;2023-07-22T15:01:37;37.30;26.20
45843;DHT22;31563;51.744;8.252;2023-07-22T15:04:05;37.20;26.20
45843;DHT22;31563;51.744;8.252;2023-07-22T15:06:35;36.80;26.20
45843;DHT22;31563;51.744;8.252;2023-07-22T15:09:04;36.40;26.40
45843;DHT22;31563;51.744;8.252;2023-07-22T15:11:34;36.50;26.60
45843;DHT22;31563;51.744;8.252;2023-07-22T15:14:02;36.60;26.20
45843;DHT22;31563;51.744;8.252;2023-07-22T15:16:30;36.30;26.20
45843;DHT22;31563;51.744;8.252;2023-07-22T15:18:59;36.70;26.30
45843;DHT22;31563;51.744;8.252;2023-07-22T15:21:27;36.90;26.20
45843;DHT22;31563;51.744;8.252;2023-07-22T15:23:57;36.90;26.00
45843;DHT22;31563;51.744;8.252;2023-07-22T15:26:25;37.00;26.00
45843;DHT22;31563;51.744;8.252;2023-07-22T15:28:53;37.10;25.90
45843;DHT22;31563;51.744;8.252;2023-07-22T15:31:22;36.90;25.90
45843;DHT22;31563;51.744;8.252;2023-07-22T15:33:50;36.80;25.90
45843;DHT22;31563;51.744;8.252;2023-07-22T15:36:19;36.90;26.10
45843;DHT22;31563;51.744;8.252;2023-07-22T15:38:47;37.20;26.10
45843;DHT22;31563;51.744;8.252;2023-07-22T15:41:16;37.20;25.90
45843;DHT22;31563;51.744;8.252;2023-07-22T15:43:45;37.30;25.90
45843;DHT22;31563;51.744;8.252;2023-07-22T15:46:13;37.30;26.20